Terminal Aerodrome Forecast
Issued by NWS

Home | Current Version | Previous Version | Text Only | Print | Product List | Glossary On
Versions: 1 2 3 4 5 6 7 8 9 10 11 12 13 14 15 16 17 18 19 20
679
FTUS41 KCAR 251736
TAFHUL
TAF
KHUL 251736Z 2518/2618 18009KT P6SM SCT025
     FM252100 20007KT P6SM VCTS BKN045CB
      TEMPO 2521/2601 21007KT 1SM +TSRA BKN010CB
     FM260300 30007KT P6SM BKN020
     FM261600 34011G18KT P6SM BKN035=

USA.gov is the U.S. government's official web portal to all federal, state and local government web resources and services.